createdAt,value
2022-08-17T00:00:05.822Z,12.93
2022-08-17T00:02:38.311Z,8.20
2022-08-17T00:05:09.893Z,7.57
2022-08-17T00:07:36.626Z,8.73
2022-08-17T00:10:03.857Z,6.70
2022-08-17T00:12:41.280Z,6.82
2022-08-17T00:15:13.406Z,7.22
2022-08-17T00:17:42.402Z,7.05
2022-08-17T00:20:11.160Z,7.35
2022-08-17T00:22:37.989Z,7.13
2022-08-17T00:25:08.265Z,6.85
2022-08-17T00:27:35.804Z,7.10
2022-08-17T00:30:03.283Z,7.88
2022-08-17T00:33:16.005Z,7.82
2022-08-17T00:35:25.438Z,7.80
2022-08-17T00:37:52.658Z,8.70
2022-08-17T00:40:20.593Z,6.80
2022-08-17T00:42:48.538Z,7.72
2022-08-17T00:45:17.656Z,8.02
2022-08-17T00:47:44.434Z,7.07
2022-08-17T00:50:14.236Z,6.88
2022-08-17T00:52:50.763Z,7.47
2022-08-17T00:55:18.587Z,7.90
2022-08-17T00:57:53.359Z,7.57
2022-08-17T01:00:44.329Z,6.85
2022-08-17T01:03:15.393Z,8.13
2022-08-17T01:05:44.896Z,7.50
2022-08-17T01:08:15.365Z,8.70
2022-08-17T01:10:59.652Z,9.85
2022-08-17T01:13:36.748Z,9.93
2022-08-17T01:16:16.191Z,8.40
2022-08-17T01:18:45.656Z,8.75
2022-08-17T01:21:22.845Z,8.20
2022-08-17T01:23:49.756Z,9.20
2022-08-17T01:26:16.773Z,8.77
2022-08-17T01:28:55.320Z,9.38
2022-08-17T01:31:24.851Z,10.18
2022-08-17T01:33:53.928Z,10.20
2022-08-17T01:36:23.412Z,9.70
2022-08-17T01:38:50.205Z,9.63
2022-08-17T01:41:18.930Z,9.27
2022-08-17T01:43:55.247Z,10.35
2022-08-17T01:46:27.249Z,9.77
2022-08-17T01:48:56.449Z,9.98
2022-08-17T01:51:26.589Z,10.80
2022-08-17T01:53:58.146Z,11.38
2022-08-17T01:56:26.488Z,11.93
2022-08-17T01:58:53.968Z,16.75
2022-08-17T02:01:24.847Z,17.05
2022-08-17T02:03:59.226Z,16.00
2022-08-17T02:06:29.727Z,18.30
2022-08-17T02:09:03.296Z,19.45
2022-08-17T02:11:34.319Z,18.23
2022-08-17T02:14:03.679Z,20.80
2022-08-17T02:16:36.651Z,18.33
2022-08-17T02:19:08.299Z,18.70
2022-08-17T02:21:37.288Z,19.65
2022-08-17T02:24:07.070Z,20.40
2022-08-17T02:26:35.246Z,20.15
2022-08-17T02:29:02.141Z,19.92
2022-08-17T02:31:31.259Z,21.05
2022-08-17T02:34:04.564Z,21.15
2022-08-17T02:36:36.946Z,19.33
2022-08-17T02:39:08.339Z,19.77
2022-08-17T02:41:38.933Z,19.83
2022-08-17T02:44:06.914Z,21.38
2022-08-17T02:46:33.582Z,21.50
2022-08-17T02:49:00.340Z,19.60
2022-08-17T02:51:27.709Z,20.83
2022-08-17T02:54:39.097Z,19.58
2022-08-17T02:56:41.393Z,17.67
2022-08-17T02:59:08.871Z,20.98
2022-08-17T03:01:36.951Z,20.73
2022-08-17T03:04:03.921Z,19.48
2022-08-17T03:06:31.881Z,20.02
2022-08-17T03:08:58.784Z,19.52
2022-08-17T03:11:25.599Z,17.88
2022-08-17T03:13:52.430Z,17.80
2022-08-17T03:16:19.089Z,19.48
2022-08-17T03:18:46.057Z,19.52
2022-08-17T03:21:12.837Z,18.85
2022-08-17T03:23:41.507Z,18.75
2022-08-17T03:26:12.368Z,18.63
2022-08-17T03:28:42.893Z,18.73
2022-08-17T03:31:09.781Z,19.05
2022-08-17T03:33:36.524Z,19.42
2022-08-17T03:36:03.534Z,19.02
2022-08-17T03:38:30.346Z,18.50
2022-08-17T03:41:07.645Z,18.35
2022-08-17T03:43:34.868Z,19.88
2022-08-17T03:46:26.997Z,19.65
2022-08-17T03:49:14.280Z,18.60
2022-08-17T03:51:59.572Z,18.67
2022-08-17T03:54:44.949Z,19.67
2022-08-17T03:57:11.830Z,20.85
2022-08-17T03:59:40.856Z,19.70
2022-08-17T04:02:17.799Z,19.15
2022-08-17T04:04:44.914Z,17.38
2022-08-17T04:07:12.074Z,18.88
2022-08-17T04:09:38.768Z,19.30
2022-08-17T04:12:05.758Z,19.30
2022-08-17T04:14:51.392Z,18.65
2022-08-17T04:17:24.940Z,18.58
2022-08-17T04:19:52.483Z,18.92
2022-08-17T04:22:32.508Z,19.17
2022-08-17T04:25:14.425Z,18.70
2022-08-17T04:27:41.165Z,18.55
2022-08-17T04:30:08.706Z,18.45
2022-08-17T04:33:15.644Z,17.85
2022-08-17T04:35:51.389Z,16.75
2022-08-17T04:38:21.382Z,18.00
2022-08-17T04:41:07.413Z,18.45
2022-08-17T04:43:35.785Z,17.85
2022-08-17T04:46:09.776Z,18.33
2022-08-17T04:48:43.242Z,18.23
2022-08-17T04:51:18.405Z,16.90
2022-08-17T04:53:53.891Z,18.10
2022-08-17T04:56:24.561Z,17.52
2022-08-17T04:58:58.401Z,18.08
2022-08-17T05:01:28.258Z,18.02
2022-08-17T05:03:59.079Z,17.17
2022-08-17T05:06:27.801Z,16.95
2022-08-17T05:08:55.573Z,16.92
2022-08-17T05:11:26.150Z,17.27
2022-08-17T05:13:54.885Z,17.70
2022-08-17T05:16:24.015Z,17.75
2022-08-17T05:18:51.091Z,17.45
2022-08-17T05:21:18.201Z,17.52
2022-08-17T05:23:47.214Z,18.05
2022-08-17T05:26:26.038Z,17.52
2022-08-17T05:28:55.315Z,17.25
2022-08-17T05:31:24.427Z,19.50
2022-08-17T05:33:53.467Z,17.38
2022-08-17T05:36:41.933Z,16.55
2022-08-17T05:39:07.241Z,18.23
2022-08-17T05:41:34.096Z,16.38
2022-08-17T05:44:00.774Z,16.85
2022-08-17T05:46:39.308Z,16.90
2022-08-17T05:49:11.220Z,17.80
2022-08-17T05:52:02.092Z,18.05
2022-08-17T05:54:43.883Z,17.67
2022-08-17T05:57:39.509Z,18.42
2022-08-17T06:00:20.221Z,17.90
2022-08-17T06:03:39.644Z,16.33
2022-08-17T06:06:17.168Z,16.08
2022-08-17T06:09:03.040Z,18.85
2022-08-17T06:11:32.559Z,16.35
2022-08-17T06:14:22.823Z,16.73
2022-08-17T06:16:58.718Z,17.00
2022-08-17T06:19:33.059Z,16.13
2022-08-17T06:24:42.121Z,16.58
2022-08-17T06:27:27.742Z,17.90
2022-08-17T06:30:11.533Z,16.40
2022-08-17T06:32:41.979Z,17.13
2022-08-17T06:35:11.720Z,16.13
2022-08-17T06:37:55.452Z,17.77
2022-08-17T06:40:37.748Z,17.07
2022-08-17T06:43:13.847Z,16.42
2022-08-17T06:45:58.752Z,16.95
2022-08-17T06:51:03.322Z,16.13
2022-08-17T06:53:52.175Z,16.75
2022-08-17T06:56:53.713Z,16.00
2022-08-17T06:59:34.747Z,17.10
2022-08-17T07:02:29.399Z,16.27
2022-08-17T07:08:03.641Z,15.90
2022-08-17T07:10:59.332Z,15.07
2022-08-17T07:13:36.001Z,15.30
2022-08-17T07:16:15.840Z,15.32
2022-08-17T07:18:43.913Z,16.10
2022-08-17T07:21:41.699Z,15.23
2022-08-17T07:24:33.615Z,14.88
2022-08-17T07:27:10.401Z,15.45
2022-08-17T07:29:47.073Z,13.77
2022-08-17T07:32:32.018Z,14.38
2022-08-17T07:35:11.453Z,14.98
2022-08-17T07:37:46.729Z,13.73
2022-08-17T07:40:24.278Z,14.55
2022-08-17T07:43:06.119Z,14.55
2022-08-17T07:45:54.121Z,14.02
2022-08-17T07:48:25.958Z,13.13
2022-08-17T07:50:53.329Z,13.45
2022-08-17T07:53:24.310Z,15.32
2022-08-17T07:55:53.005Z,14.95
2022-08-17T07:58:24.154Z,15.40
2022-08-17T08:01:23.966Z,15.45
2022-08-17T08:04:59.323Z,14.50
2022-08-17T08:07:30.463Z,14.27
2022-08-17T08:10:28.380Z,13.00
2022-08-17T08:13:08.752Z,14.52
2022-08-17T08:15:53.902Z,13.40
2022-08-17T08:18:38.704Z,14.98
2022-08-17T08:21:29.165Z,14.63
2022-08-17T08:24:17.052Z,13.68
2022-08-17T08:26:50.120Z,13.77
2022-08-17T08:29:46.115Z,13.77
2022-08-17T08:32:40.710Z,15.50
2022-08-17T08:35:22.675Z,14.32
2022-08-17T08:38:14.831Z,14.05
2022-08-17T08:41:19.329Z,14.05
2022-08-17T08:44:08.166Z,14.97
2022-08-17T08:46:52.431Z,13.48
2022-08-17T08:49:45.060Z,12.68
2022-08-17T08:52:31.081Z,13.75
2022-08-17T08:55:24.798Z,12.85
2022-08-17T08:58:06.817Z,12.55
2022-08-17T09:00:40.520Z,13.45
2022-08-17T09:03:51.912Z,12.77
2022-08-17T09:06:49.518Z,13.48
2022-08-17T09:09:27.284Z,12.70
2022-08-17T09:12:15.339Z,13.73
2022-08-17T09:14:49.504Z,13.40
2022-08-17T09:17:20.757Z,13.82
2022-08-17T09:20:00.208Z,13.93
2022-08-17T09:22:42.741Z,12.68
2022-08-17T09:25:15.429Z,13.10
2022-08-17T09:27:42.124Z,13.25
2022-08-17T09:30:12.003Z,12.57
2022-08-17T09:32:50.036Z,12.63
2022-08-17T09:35:22.949Z,12.18
2022-08-17T09:38:21.730Z,12.05
2022-08-17T09:41:09.548Z,11.75
2022-08-17T09:43:56.750Z,11.68
2022-08-17T09:46:38.788Z,12.13
2022-08-17T09:49:16.223Z,11.98
2022-08-17T09:51:53.215Z,12.05
2022-08-17T09:54:44.378Z,11.57
2022-08-17T09:57:30.247Z,12.20
2022-08-17T10:00:13.262Z,11.30
2022-08-17T10:02:48.335Z,11.18
2022-08-17T10:05:23.299Z,11.70
2022-08-17T10:08:12.992Z,12.15
2022-08-17T10:11:08.674Z,11.70
2022-08-17T10:13:52.948Z,12.40
2022-08-17T10:16:32.124Z,11.57
2022-08-17T10:19:30.483Z,10.95
2022-08-17T10:22:35.329Z,11.98
2022-08-17T10:25:27.799Z,10.95
2022-08-17T10:28:12.955Z,11.48
2022-08-17T10:31:01.418Z,11.30
2022-08-17T10:34:01.783Z,12.80
2022-08-17T10:36:55.166Z,11.38
2022-08-17T10:39:30.738Z,9.98
2022-08-17T10:42:03.955Z,10.13
2022-08-17T10:44:51.790Z,11.65
2022-08-17T10:47:19.561Z,10.93
2022-08-17T10:49:54.331Z,10.75
2022-08-17T10:52:22.091Z,11.77
2022-08-17T10:54:51.479Z,9.70
2022-08-17T10:57:27.579Z,11.02
2022-08-17T10:59:58.440Z,11.10
2022-08-17T11:02:41.360Z,10.90
2022-08-17T11:05:11.308Z,10.57
2022-08-17T11:07:58.608Z,10.13
2022-08-17T11:10:51.983Z,9.80
2022-08-17T11:13:40.753Z,9.88
2022-08-17T11:16:32.698Z,9.90
2022-08-17T11:19:21.286Z,9.25
2022-08-17T11:22:12.760Z,9.70
2022-08-17T11:24:45.438Z,10.07
2022-08-17T11:27:22.283Z,9.57
2022-08-17T11:30:01.498Z,9.68
2022-08-17T11:32:34.535Z,11.20
2022-08-17T11:35:21.917Z,9.77
2022-08-17T11:38:14.017Z,10.52
2022-08-17T11:40:51.768Z,10.23
2022-08-17T11:43:29.307Z,10.02
2022-08-17T11:46:20.466Z,11.07
2022-08-17T11:49:11.687Z,12.05
2022-08-17T11:52:01.020Z,11.63
2022-08-17T11:54:32.666Z,10.95
2022-08-17T11:57:21.633Z,11.25
2022-08-17T11:59:49.684Z,11.32
2022-08-17T12:02:31.704Z,10.93
2022-08-17T12:05:27.607Z,11.07
2022-08-17T12:08:21.685Z,11.48
2022-08-17T12:11:02.099Z,10.60
2022-08-17T12:13:38.721Z,10.50
2022-08-17T12:16:09.460Z,10.52
2022-08-17T12:18:39.734Z,10.07
2022-08-17T12:21:26.696Z,10.27
2022-08-17T12:24:16.630Z,10.75
2022-08-17T12:26:52.080Z,11.85
2022-08-17T12:29:38.845Z,10.98
2022-08-17T12:32:07.267Z,10.68
2022-08-17T12:34:40.809Z,11.30
2022-08-17T12:37:15.327Z,11.15
2022-08-17T12:39:57.143Z,11.13
2022-08-17T12:42:31.303Z,11.00
2022-08-17T12:44:58.876Z,10.40
2022-08-17T12:47:26.551Z,10.63
2022-08-17T12:50:08.308Z,11.32
2022-08-17T12:52:59.714Z,11.75
2022-08-17T12:55:32.551Z,11.60
2022-08-17T12:58:02.138Z,11.43
2022-08-17T13:00:40.035Z,10.07
2022-08-17T13:03:19.876Z,10.27
2022-08-17T13:05:52.465Z,11.27
2022-08-17T13:08:26.944Z,11.20
2022-08-17T13:10:59.611Z,10.30
2022-08-17T13:13:31.972Z,10.85
2022-08-17T13:16:00.684Z,10.70
2022-08-17T13:18:36.164Z,10.75
2022-08-17T13:21:02.868Z,9.98
2022-08-17T13:23:31.351Z,10.43
2022-08-17T13:26:06.399Z,11.13
2022-08-17T13:28:36.040Z,10.80
2022-08-17T13:31:32.964Z,11.13
2022-08-17T13:34:26.730Z,10.70
2022-08-17T13:37:32.821Z,11.02
2022-08-17T13:40:08.266Z,10.05
2022-08-17T13:42:52.455Z,10.10
2022-08-17T13:45:35.344Z,10.35
2022-08-17T13:48:14.807Z,10.73
2022-08-17T13:50:48.288Z,10.32
2022-08-17T13:53:23.754Z,10.40
2022-08-17T13:55:53.272Z,9.25
2022-08-17T13:58:33.272Z,10.63
2022-08-17T14:01:35.385Z,9.25
2022-08-17T14:04:09.305Z,10.02
2022-08-17T14:06:52.154Z,9.90
2022-08-17T14:09:24.136Z,10.18
2022-08-17T14:11:52.955Z,9.50
2022-08-17T14:14:21.855Z,10.10
2022-08-17T14:16:48.917Z,10.55
2022-08-17T14:19:17.742Z,9.48
2022-08-17T14:21:46.485Z,9.43
2022-08-17T14:24:23.292Z,9.48
2022-08-17T14:26:52.388Z,9.40
2022-08-17T14:29:23.968Z,9.27
2022-08-17T14:31:53.283Z,10.02
2022-08-17T14:34:22.436Z,9.23
2022-08-17T14:36:49.113Z,9.52
2022-08-17T14:39:17.673Z,8.77
2022-08-17T14:41:45.105Z,9.18
2022-08-17T14:44:14.904Z,8.20
2022-08-17T14:46:43.780Z,8.32
2022-08-17T14:49:14.501Z,8.18
2022-08-17T14:51:43.969Z,8.27
2022-08-17T14:54:29.384Z,7.97
2022-08-17T14:57:04.638Z,7.95
2022-08-17T14:59:49.202Z,8.68
2022-08-17T15:02:29.855Z,8.40
2022-08-17T15:05:02.492Z,8.05
2022-08-17T15:07:30.517Z,8.00
2022-08-17T15:09:58.769Z,8.18
2022-08-17T15:12:32.293Z,9.05
2022-08-17T15:15:00.866Z,8.13
2022-08-17T15:17:44.206Z,8.88
2022-08-17T15:20:19.719Z,8.20
2022-08-17T15:22:51.233Z,8.93
2022-08-17T15:25:19.442Z,8.43
2022-08-17T15:27:46.288Z,8.80
2022-08-17T15:30:14.910Z,9.18
2022-08-17T15:32:45.844Z,8.82
2022-08-17T15:35:18.970Z,9.77
2022-08-17T15:37:53.936Z,9.02
2022-08-17T15:40:20.566Z,8.55
2022-08-17T15:42:47.192Z,8.30
2022-08-17T15:45:16.554Z,8.85
2022-08-17T15:47:45.598Z,8.20
2022-08-17T15:50:12.341Z,8.95
2022-08-17T15:52:40.652Z,8.95
2022-08-17T15:55:10.867Z,8.75
2022-08-17T15:57:37.735Z,8.60
2022-08-17T16:00:07.675Z,8.80
2022-08-17T16:03:15.265Z,8.52
2022-08-17T16:05:25.072Z,9.13
2022-08-17T16:07:52.832Z,8.25
2022-08-17T16:10:20.136Z,8.35
2022-08-17T16:12:49.367Z,9.23
2022-08-17T16:15:17.305Z,9.23
2022-08-17T16:17:43.953Z,8.80
2022-08-17T16:20:20.456Z,8.27
2022-08-17T16:22:49.894Z,8.40
2022-08-17T16:25:23.395Z,9.00
2022-08-17T16:28:10.072Z,9.20
2022-08-17T16:30:38.270Z,9.25
2022-08-17T16:33:05.465Z,9.00
2022-08-17T16:35:32.047Z,8.75
2022-08-17T16:37:59.061Z,9.68
2022-08-17T16:40:28.629Z,9.43
2022-08-17T16:42:55.973Z,9.48
2022-08-17T16:45:36.417Z,9.02
2022-08-17T16:48:03.596Z,10.00
2022-08-17T16:50:30.326Z,9.68
2022-08-17T16:53:10.997Z,8.85
2022-08-17T16:55:38.367Z,8.88
2022-08-17T16:58:06.938Z,9.73
2022-08-17T17:00:34.838Z,10.02
2022-08-17T17:03:19.538Z,9.05
2022-08-17T17:06:09.232Z,9.93
2022-08-17T17:08:48.543Z,9.13
2022-08-17T17:11:41.752Z,10.00
2022-08-17T17:14:20.486Z,8.57
2022-08-17T17:16:59.380Z,10.30
2022-08-17T17:19:46.665Z,10.00
2022-08-17T17:22:21.284Z,9.73
2022-08-17T17:25:02.508Z,9.13
2022-08-17T17:27:51.088Z,9.60
2022-08-17T17:30:25.195Z,9.85
2022-08-17T17:33:04.654Z,9.50
2022-08-17T17:35:53.624Z,9.88
2022-08-17T17:38:31.580Z,9.98
2022-08-17T17:41:05.576Z,9.30
2022-08-17T17:43:39.708Z,9.45
2022-08-17T17:46:27.293Z,10.77
2022-08-17T17:48:55.230Z,9.77
2022-08-17T17:52:13.423Z,10.32
2022-08-17T17:55:03.254Z,11.07
2022-08-17T17:57:44.424Z,9.27
2022-08-17T18:00:33.224Z,9.48
2022-08-17T18:03:17.766Z,10.25
2022-08-17T18:05:53.619Z,9.40
2022-08-17T18:08:36.228Z,10.27
2022-08-17T18:11:25.166Z,9.65
2022-08-17T18:14:07.019Z,9.63
2022-08-17T18:16:35.032Z,10.23
2022-08-17T18:19:01.846Z,9.48
2022-08-17T18:21:45.865Z,9.88
2022-08-17T18:24:13.566Z,9.30
2022-08-17T18:26:55.429Z,10.63
2022-08-17T18:29:24.769Z,9.52
2022-08-17T18:32:12.844Z,9.85
2022-08-17T18:34:48.481Z,9.30
2022-08-17T18:37:31.266Z,9.23
2022-08-17T18:39:57.999Z,8.88
2022-08-17T18:42:27.625Z,9.23
2022-08-17T18:44:55.699Z,9.18
2022-08-17T18:47:24.152Z,9.15
2022-08-17T18:49:57.573Z,10.23
2022-08-17T18:52:24.283Z,9.90
2022-08-17T18:55:11.139Z,9.48
2022-08-17T18:57:41.786Z,8.60
2022-08-17T19:00:42.118Z,9.25
2022-08-17T19:03:20.698Z,9.52
2022-08-17T19:05:51.746Z,8.57
2022-08-17T19:08:33.524Z,9.68
2022-08-17T19:11:29.127Z,8.80
2022-08-17T19:14:09.317Z,9.05
2022-08-17T19:16:49.539Z,8.40
2022-08-17T19:19:26.832Z,8.85
2022-08-17T19:22:29.356Z,8.93
2022-08-17T19:25:10.959Z,8.80
2022-08-17T19:27:57.624Z,8.95
2022-08-17T19:30:24.728Z,9.10
2022-08-17T19:32:51.520Z,9.13
2022-08-17T19:35:20.439Z,9.13
2022-08-17T19:37:59.755Z,8.25
2022-08-17T19:40:50.953Z,8.43
2022-08-17T19:43:31.876Z,8.95
2022-08-17T19:46:48.530Z,9.27
2022-08-17T19:49:46.751Z,8.70
2022-08-17T19:52:15.967Z,8.65
2022-08-17T19:55:21.203Z,8.68
2022-08-17T19:58:07.607Z,9.25
2022-08-17T20:00:51.267Z,10.00
2022-08-17T20:03:27.256Z,8.88
2022-08-17T20:06:14.036Z,9.02
2022-08-17T20:09:14.317Z,9.35
2022-08-17T20:11:48.770Z,9.00
2022-08-17T20:14:21.015Z,9.68
2022-08-17T20:16:48.224Z,9.32
2022-08-17T20:19:18.053Z,9.85
2022-08-17T20:21:59.999Z,10.38
2022-08-17T20:24:48.248Z,10.45
2022-08-17T20:27:20.880Z,9.45
2022-08-17T20:30:10.983Z,9.18
2022-08-17T20:32:52.032Z,9.25
2022-08-17T20:35:26.001Z,8.70
2022-08-17T20:37:55.305Z,9.80
2022-08-17T20:40:29.278Z,9.80
2022-08-17T20:42:57.259Z,10.05
2022-08-17T20:45:24.381Z,9.77
2022-08-17T20:48:20.067Z,9.55
2022-08-17T20:50:51.492Z,9.40
2022-08-17T20:53:54.655Z,10.93
2022-08-17T20:56:49.163Z,9.77
2022-08-17T20:59:55.196Z,9.85
2022-08-17T21:02:23.632Z,10.38
2022-08-17T21:04:50.276Z,9.68
2022-08-17T21:07:33.156Z,10.15
2022-08-17T21:10:14.891Z,10.32
2022-08-17T21:12:49.572Z,10.63
2022-08-17T21:15:50.576Z,9.40
2022-08-17T21:18:56.729Z,11.07
2022-08-17T21:21:26.192Z,10.45
2022-08-17T21:23:58.938Z,11.20
2022-08-17T21:27:00.380Z,10.88
2022-08-17T21:29:31.170Z,10.55
2022-08-17T21:31:59.635Z,11.43
2022-08-17T21:34:38.846Z,12.05
2022-08-17T21:37:22.183Z,11.13
2022-08-17T21:39:59.019Z,11.13
2022-08-17T21:42:32.164Z,11.27
2022-08-17T21:45:20.944Z,10.35
2022-08-17T21:47:50.786Z,11.30
2022-08-17T21:50:25.142Z,10.98
2022-08-17T21:52:56.764Z,9.88
2022-08-17T21:55:29.767Z,10.38
2022-08-17T21:58:14.086Z,9.98
2022-08-17T22:00:46.014Z,9.73
2022-08-17T22:03:25.998Z,10.13
2022-08-17T22:05:52.721Z,10.25
2022-08-17T22:08:22.359Z,10.93
2022-08-17T22:10:51.284Z,9.63
2022-08-17T22:13:18.002Z,11.20
2022-08-17T22:16:27.732Z,9.93
2022-08-17T22:18:57.929Z,11.18
2022-08-17T22:21:25.226Z,10.77
2022-08-17T22:24:05.118Z,10.05
2022-08-17T22:27:00.248Z,10.48
2022-08-17T22:29:47.023Z,9.25
2022-08-17T22:32:35.018Z,9.40
2022-08-17T22:35:29.374Z,9.98
2022-08-17T22:37:57.642Z,10.95
2022-08-17T22:40:30.601Z,11.63
2022-08-17T22:43:00.493Z,10.73
2022-08-17T22:45:31.209Z,11.20
2022-08-17T22:48:00.451Z,11.73
2022-08-17T22:50:33.580Z,10.55
2022-08-17T22:53:22.991Z,11.10
2022-08-17T22:56:09.992Z,10.88
2022-08-17T22:59:13.417Z,12.88
2022-08-17T23:01:42.950Z,11.45
2022-08-17T23:04:33.403Z,13.00
2022-08-17T23:07:00.099Z,11.93
2022-08-17T23:09:26.833Z,10.60
2022-08-17T23:12:00.506Z,11.77
2022-08-17T23:14:31.534Z,12.18
2022-08-17T23:17:02.707Z,11.60
2022-08-17T23:19:32.656Z,12.35
2022-08-17T23:22:02.785Z,12.63
2022-08-17T23:24:32.643Z,11.80
2022-08-17T23:27:01.109Z,12.35
2022-08-17T23:29:29.292Z,10.35
2022-08-17T23:31:59.986Z,10.52
2022-08-17T23:34:28.153Z,8.15
2022-08-17T23:36:56.133Z,6.80
2022-08-17T23:39:24.674Z,5.47
2022-08-17T23:41:57.376Z,4.88
2022-08-17T23:44:24.036Z,4.20
2022-08-17T23:46:51.828Z,4.85
2022-08-17T23:49:19.141Z,4.70
2022-08-17T23:51:47.916Z,3.85
2022-08-17T23:54:24.521Z,3.03
2022-08-17T23:56:51.257Z,2.90
2022-08-17T23:59:20.787Z,2.42
